Attila, Illinois
Current Conditions -  °F | °C
As of 4:15 AM on Friday 31 Oct 2014 (Local Time) from KMWA Reporting Station
Overcast Overcast  
Wind Chill: 10°   Ceiling: 4800
Heat Index: 10°   Visibility: 7mi
Dew Point:   Wind: 0mph
Humidity: 94%   Direction: NA
Pressure: 30.02"   Gusts: NA
Location:  37.7887°N, 88.8655°W
Report Text: KMWA 310915Z AUTO 00000KT 7SM OVC048 10/09 A3002 RMK AO2
Loading
Personal Weather Stations






























Interactive Weather Map
Tropical Storm Tracking
New forecast layout! Learn more

10-Day Weather Forecast

Advertisements
Track Severe Weather on mobile